Tuesday, May 31, 2016
19:59 UTC
  |  Log In   |  Register Free
Airport Search:

Seattle-Tacoma International Airport
(KSEA)

FAA data valid effective Mar 31 2016 - May 26 2016 (unless otherwise noted).

 
 
 
 
 
 
 
 
 
 
 
 
 
 
Current Aviation Weather for KSEA

Weather Summary


The most recent METAR observation for SEA was updated at: 13:07 UTC
METAR for KSEA is not available. Closest METAR is for KRNT
KSEA  (most recent observation was updatred at 31:19 UTC)
311953Z 30008KT 10SM SCT200 23/10 A3007 RMK AO2 SLP187 T02280100

KRNT  (4.6 nm SW)   (most recent observation was updated at 31:19 UTC)
311953Z 32008KT 10SM CLR 23/10 A3005 RMK AO2 SLP179 T02280100

KBFI  (4.9 nm SW)   (most recent observation was updated at 31:19 UTC)
311953Z 31005KT 10SM FEW200 23/10 A3005 RMK AO2 SLP177 T02330100 $

TAF for KSEA is not available.
KSEA
311735Z 3118/0124 35006KT P6SM SCT250 FM011300 21008KT P6SM BKN250

KBFI  (4.9 nm SW)   (most recent observation was updatred at 31:17 UTC)
311735Z 3118/0118 30006KT P6SM SCT250 FM010500 00000KT P6SM SCT250 FM011300 19006KT P6SM BKN250


KTCM  (19.9 nm NE)   (most recent observation was updatred at 31:13 UTC)
311301Z 3113/0119 12005KT 9999 FEW150 QNH3009INS BECMG 3116/3117 02009KT 9999 SCT150 QNH2996INS BECMG 0106/0107 19007KT 9999 FEW150 SCT200 QNH2995INS BECMG 0117/0118 24012KT 9999 FEW100 SCT200 QNH2996INS TX26/3123Z TN06/3113Z
GlobalAir.com is loading additional information.
 Current Weather at SEA
69.0 F° (20.6 C°)

Northwest winds at 6.9 mph
Pressure:
30.10 in
Humidity:
51%
Wind:
Northwest at 6.9 mph
Dew Point:
50.0 F° (10.0 C°)
Visibility:
10.00 mi
SEA NOAA Radar




Find All Airport Services Find A Hotel Find A Rental Car Find A Golf Course Find A Restaurant $100 Hamburger



Airport Weather Forecast for KSEA

Translated METAR for KSEA (1953 UTC)
METAR:
KSEA 311953Z 30008KT 10SM SCT200 23/10 A3007 RMK AO2 SLP187 T02280100
Conditions at:
KSEA (Seattle-Tacoma Intl, WA) observed 1953 UTC 31 May 2016
Temperature:
23°C (73.4°F)
Dewpoint:
10°C (50°F) [RH = 43.7]
Pressure:
30.07 inches Hg (1018.3 mb)
pressure at sea level is 187 in Hg
Winds:
from the WNW (300 degrees) at 9.2 mph (8 knots: 4.1 m/s)
Visibility:
10 mile(s)
Ceiling:
at least 12,000 feet AGL
Clouds:
Scattered Clouds at 20,000 feet AGL
Remarks:
site is automated and HAS a precipitation sensor

FBO's on the Field
FBO Company Facility Photos Services Transportation Aviation Fuel Prices: Prices include tax
Catering Weather Repair Courtesy Rental Type 100LL JetA JetA+ MOGAS 8087
 
Aircraft Service Intl.

This FBO has not yet been rated
FS:Independent
Last Updated: Apr-22
Login to update fuel prices
SS:
Contact Aircraft Service Intl.More FBO Information
 
Add another FBO Facility Photos Catering Weather Repair Courtesy Rental Type 100LL JetA JetA+ MOGAS 8087
Services Transportation Aviation Fuel Prices: Prices include tax


model-print
model-print
model-print
model-print